createdAt,value
2019-03-12T00:01:47.798Z,78.96
2019-03-12T00:04:19.509Z,78.79
2019-03-12T00:06:51.112Z,78.71
2019-03-12T00:09:22.729Z,78.90
2019-03-12T00:11:54.407Z,78.97
2019-03-12T00:14:26.098Z,79.04
2019-03-12T00:16:57.787Z,79.28
2019-03-12T00:19:29.497Z,79.44
2019-03-12T00:22:01.095Z,79.61
2019-03-12T00:24:32.720Z,79.57
2019-03-12T00:27:04.408Z,79.39
2019-03-12T00:29:36.112Z,79.53
2019-03-12T00:32:07.711Z,79.56
2019-03-12T00:34:39.508Z,79.48
2019-03-12T00:37:11.175Z,79.21
2019-03-12T00:39:42.789Z,79.24
2019-03-12T00:42:14.373Z,79.38
2019-03-12T00:44:46.186Z,79.70
2019-03-12T00:47:18.098Z,79.80
2019-03-12T00:49:49.734Z,79.64
2019-03-12T00:52:21.344Z,79.50
2019-03-12T00:54:52.966Z,79.08
2019-03-12T00:57:24.633Z,79.10
2019-03-12T00:59:56.642Z,79.30
2019-03-12T01:02:28.288Z,79.34
2019-03-12T01:04:59.959Z,79.68
2019-03-12T01:07:31.565Z,79.42
2019-03-12T01:10:04.262Z,79.44
2019-03-12T01:12:35.925Z,79.65
2019-03-12T01:15:07.794Z,79.55
2019-03-12T01:17:40.464Z,79.50
2019-03-12T01:20:12.582Z,79.40
2019-03-12T01:22:44.184Z,79.58
2019-03-12T01:25:15.807Z,79.68
2019-03-12T01:27:47.651Z,79.99
2019-03-12T01:30:19.333Z,79.95
2019-03-12T01:32:51.248Z,79.86
2019-03-12T01:35:22.847Z,79.49
2019-03-12T01:37:54.494Z,79.55
2019-03-12T01:40:26.198Z,79.81
2019-03-12T01:42:57.787Z,78.92
2019-03-12T01:45:29.373Z,78.96
2019-03-12T01:48:00.995Z,78.44
2019-03-12T01:50:32.617Z,78.90
2019-03-12T01:53:04.227Z,78.44
2019-03-12T01:55:35.907Z,77.92
2019-03-12T01:58:07.568Z,77.72
2019-03-12T02:00:39.345Z,77.02
2019-03-12T02:03:12.005Z,76.54
2019-03-12T02:05:43.684Z,76.89
2019-03-12T02:08:15.309Z,76.01
2019-03-12T02:10:47.170Z,75.72
2019-03-12T02:13:19.020Z,75.91
2019-03-12T02:15:51.068Z,76.12
2019-03-12T02:18:22.932Z,75.05
2019-03-12T02:20:54.615Z,75.23
2019-03-12T02:23:28.848Z,75.32
2019-03-12T02:25:59.638Z,75.57
2019-03-12T02:28:31.504Z,75.01
2019-03-12T02:31:03.252Z,75.40
2019-03-12T02:33:34.950Z,75.04
2019-03-12T02:36:06.619Z,74.37
2019-03-12T02:38:38.286Z,74.47
2019-03-12T02:41:09.893Z,74.62
2019-03-12T02:43:41.494Z,74.88
2019-03-12T02:46:14.082Z,75.03
2019-03-12T02:48:45.754Z,75.05
2019-03-12T02:51:17.410Z,75.05
2019-03-12T02:53:49.022Z,75.16
2019-03-12T02:56:20.813Z,75.37
2019-03-12T02:58:52.415Z,75.53
2019-03-12T03:01:24.096Z,75.02
2019-03-12T03:03:55.778Z,75.06
2019-03-12T03:06:46.373Z,75.53
2019-03-12T03:09:18.180Z,75.61
2019-03-12T03:11:50.981Z,75.66
2019-03-12T03:14:42.302Z,75.97
2019-03-12T03:17:16.229Z,76.14
2019-03-12T03:19:48.131Z,76.36
2019-03-12T03:22:19.735Z,76.60
2019-03-12T03:24:51.324Z,76.73
2019-03-12T03:27:22.936Z,76.60
2019-03-12T03:29:54.652Z,76.70
2019-03-12T03:32:26.288Z,76.55
2019-03-12T03:34:57.910Z,76.63
2019-03-12T03:37:29.667Z,76.76
2019-03-12T03:40:01.327Z,76.85
2019-03-12T03:42:33.222Z,76.93
2019-03-12T03:45:05.048Z,77.21
2019-03-12T03:47:36.690Z,77.34
2019-03-12T03:50:08.713Z,77.56
2019-03-12T03:52:40.431Z,77.80
2019-03-12T03:55:13.829Z,77.87
2019-03-12T03:57:45.569Z,78.11
2019-03-12T04:00:19.074Z,78.02
2019-03-12T04:02:50.977Z,78.42
2019-03-12T04:05:22.698Z,78.42
2019-03-12T04:07:54.536Z,78.20
2019-03-12T04:10:26.192Z,78.23
2019-03-12T04:12:57.791Z,77.71
2019-03-12T04:15:29.369Z,78.01
2019-03-12T04:18:01.053Z,78.01
2019-03-12T04:20:32.735Z,78.15
2019-03-12T04:23:04.445Z,78.21
2019-03-12T04:25:36.110Z,77.84
2019-03-12T04:28:07.770Z,77.86
2019-03-12T04:30:39.363Z,78.18
2019-03-12T04:33:41.423Z,78.10
2019-03-12T04:36:13.033Z,77.47
2019-03-12T04:38:44.672Z,77.69
2019-03-12T04:41:16.341Z,77.65
2019-03-12T04:43:48.118Z,77.60
2019-03-12T04:46:19.765Z,77.71
2019-03-12T04:48:51.498Z,77.46
2019-03-12T04:51:23.088Z,77.49
2019-03-12T04:53:54.705Z,77.57
2019-03-12T04:56:26.389Z,77.64
2019-03-12T04:58:57.976Z,77.64
2019-03-12T05:01:29.575Z,78.08
2019-03-12T05:04:01.261Z,77.71
2019-03-12T05:06:32.922Z,77.60
2019-03-12T05:09:05.764Z,77.52
2019-03-12T05:11:38.167Z,77.57
2019-03-12T05:14:42.022Z,77.60
2019-03-12T05:17:30.873Z,77.65
2019-03-12T05:20:02.546Z,77.43
2019-03-12T05:22:34.219Z,77.57
2019-03-12T05:25:06.261Z,77.91
2019-03-12T05:27:37.936Z,78.12
2019-03-12T05:30:12.153Z,77.74
2019-03-12T05:32:43.833Z,77.66
2019-03-12T05:35:15.441Z,77.79
2019-03-12T05:37:47.205Z,77.86
2019-03-12T05:40:19.048Z,77.92
2019-03-12T05:42:50.837Z,78.00
2019-03-12T05:45:22.427Z,78.16
2019-03-12T05:47:54.020Z,78.33
2019-03-12T05:50:25.762Z,78.34
2019-03-12T05:53:10.301Z,78.38
2019-03-12T05:55:41.885Z,78.56
2019-03-12T05:58:13.469Z,78.38
2019-03-12T06:00:45.073Z,78.43
2019-03-12T06:03:16.917Z,78.37
2019-03-12T06:05:48.512Z,77.82
2019-03-12T06:08:20.170Z,77.70
2019-03-12T06:10:52.027Z,78.04
2019-03-12T06:13:23.920Z,77.92
2019-03-12T06:15:55.749Z,77.88
2019-03-12T06:18:27.420Z,77.23
2019-03-12T06:20:59.050Z,77.41
2019-03-12T06:23:30.651Z,77.13
2019-03-12T06:26:02.283Z,76.52
2019-03-12T06:28:34.147Z,76.81
2019-03-12T06:31:23.038Z,77.53
2019-03-12T06:33:58.813Z,76.91
2019-03-12T06:36:35.075Z,76.93
2019-03-12T06:39:16.029Z,76.77
2019-03-12T06:42:12.584Z,76.87
2019-03-12T06:45:03.310Z,76.95
2019-03-12T06:47:41.759Z,76.42
2019-03-12T06:50:32.267Z,77.01
2019-03-12T06:53:22.789Z,76.87
2019-03-12T06:56:16.025Z,76.64
2019-03-12T06:59:04.921Z,76.80
2019-03-12T07:02:13.355Z,77.03
2019-03-12T07:05:03.966Z,76.70
2019-03-12T07:07:57.363Z,76.71
2019-03-12T07:10:37.762Z,76.69
2019-03-12T07:13:24.920Z,75.84
2019-03-12T07:16:09.736Z,76.23
2019-03-12T07:19:03.031Z,76.08
2019-03-12T07:21:48.499Z,75.90
2019-03-12T07:24:44.833Z,75.73
2019-03-12T07:27:26.721Z,76.56
2019-03-12T07:30:17.241Z,76.96
2019-03-12T07:33:16.874Z,76.07
2019-03-12T07:36:16.951Z,75.64
2019-03-12T07:39:10.631Z,75.44
2019-03-12T07:41:59.069Z,75.41
2019-03-12T07:44:51.276Z,76.28
2019-03-12T07:47:35.786Z,74.86
2019-03-12T07:50:21.507Z,74.23
2019-03-12T07:53:07.810Z,73.87
2019-03-12T07:55:58.426Z,73.74
2019-03-12T07:58:55.198Z,74.22
2019-03-12T08:01:45.927Z,74.10
2019-03-12T08:04:49.564Z,73.99
2019-03-12T08:07:28.292Z,73.83
2019-03-12T08:10:25.151Z,73.77
2019-03-12T08:13:17.431Z,73.02
2019-03-12T08:16:14.716Z,73.37
2019-03-12T08:19:05.678Z,73.14
2019-03-12T08:21:58.117Z,73.79
2019-03-12T08:24:48.874Z,74.59
2019-03-12T08:27:43.259Z,74.65
2019-03-12T08:30:32.433Z,74.68
2019-03-12T08:33:50.406Z,75.07
2019-03-12T08:36:40.052Z,75.27
2019-03-12T08:39:30.717Z,75.28
2019-03-12T08:42:18.480Z,75.07
2019-03-12T08:45:15.721Z,75.21
2019-03-12T08:48:04.047Z,73.91
2019-03-12T08:50:54.254Z,74.09
2019-03-12T08:53:44.858Z,73.60
2019-03-12T08:56:35.460Z,73.25
2019-03-12T08:59:26.652Z,72.59
2019-03-12T09:02:23.508Z,73.43
2019-03-12T09:05:29.269Z,71.61
2019-03-12T09:08:18.626Z,71.10
2019-03-12T09:11:09.287Z,71.09
2019-03-12T09:14:00.092Z,71.36
2019-03-12T09:16:56.774Z,71.62
2019-03-12T09:19:35.983Z,71.30
2019-03-12T09:22:32.635Z,70.82
2019-03-12T09:25:23.771Z,71.31
2019-03-12T09:28:15.778Z,71.29
2019-03-12T09:31:05.213Z,71.42
2019-03-12T09:33:51.705Z,70.45
2019-03-12T09:36:41.141Z,71.10
2019-03-12T09:39:25.946Z,70.47
2019-03-12T09:42:22.603Z,70.37
2019-03-12T09:45:19.489Z,70.06
2019-03-12T09:48:00.864Z,70.57
2019-03-12T09:50:54.306Z,69.84
2019-03-12T09:53:45.184Z,67.77
2019-03-12T09:56:34.742Z,68.03
2019-03-12T09:59:24.230Z,68.59
2019-03-12T10:02:09.010Z,68.70
2019-03-12T10:04:54.303Z,67.79
2019-03-12T10:07:40.150Z,67.59
2019-03-12T10:10:31.204Z,67.90
2019-03-12T10:13:14.741Z,67.63
2019-03-12T10:16:05.641Z,65.99
2019-03-12T10:18:56.250Z,66.74
2019-03-12T10:21:44.143Z,64.83
2019-03-12T10:24:36.259Z,65.27
2019-03-12T10:27:32.929Z,63.76
2019-03-12T10:30:20.398Z,64.33
2019-03-12T10:33:22.847Z,64.56
2019-03-12T10:36:02.735Z,64.81
2019-03-12T10:39:19.270Z,64.70
2019-03-12T10:42:02.968Z,65.10
2019-03-12T10:45:02.726Z,64.04
2019-03-12T10:47:35.541Z,65.23
2019-03-12T10:50:07.412Z,65.81
2019-03-12T10:52:39.507Z,64.16
2019-03-12T10:55:13.423Z,63.76
2019-03-12T10:57:46.233Z,63.64
2019-03-12T11:00:19.342Z,63.03
2019-03-12T11:02:51.284Z,63.40
2019-03-12T11:05:22.984Z,62.20
2019-03-12T11:07:54.654Z,61.96
2019-03-12T11:10:26.329Z,62.63
2019-03-12T11:12:58.001Z,58.98
2019-03-12T11:15:29.789Z,58.83
2019-03-12T11:18:01.449Z,59.35
2019-03-12T11:20:33.115Z,58.88
2019-03-12T11:23:04.786Z,58.31
2019-03-12T11:25:36.467Z,59.63
2019-03-12T11:28:08.137Z,59.34
2019-03-12T11:30:39.831Z,61.33
2019-03-12T11:33:11.558Z,60.47
2019-03-12T11:35:43.164Z,62.21
2019-03-12T11:38:14.821Z,62.46
2019-03-12T11:40:46.542Z,62.71
2019-03-12T11:43:18.270Z,62.88
2019-03-12T11:45:50.213Z,61.93
2019-03-12T11:48:22.264Z,61.57
2019-03-12T11:50:54.059Z,57.20
2019-03-12T11:53:26.819Z,55.85
2019-03-12T11:55:58.577Z,55.83
2019-03-12T11:58:30.267Z,56.32
2019-03-12T12:01:04.379Z,56.96
2019-03-12T12:03:36.243Z,55.77
2019-03-12T12:06:07.846Z,55.44
2019-03-12T12:08:39.549Z,53.55
2019-03-12T12:11:11.201Z,55.78
2019-03-12T12:13:42.987Z,55.64
2019-03-12T12:16:14.719Z,54.43
2019-03-12T12:18:46.426Z,54.91
2019-03-12T12:21:18.253Z,53.82
2019-03-12T12:23:50.201Z,55.02
2019-03-12T12:26:22.099Z,57.25
2019-03-12T12:28:53.972Z,58.44
2019-03-12T12:31:25.580Z,57.95
2019-03-12T12:33:57.260Z,58.02
2019-03-12T12:36:28.836Z,58.54
2019-03-12T12:39:00.489Z,58.66
2019-03-12T12:41:33.694Z,57.76
2019-03-12T12:44:05.363Z,57.73
2019-03-12T12:46:37.142Z,58.10
2019-03-12T12:49:08.818Z,58.83
2019-03-12T12:51:40.422Z,59.25
2019-03-12T12:54:12.088Z,59.17
2019-03-12T12:56:43.769Z,59.21
2019-03-12T12:59:15.366Z,58.24
2019-03-12T13:01:47.271Z,57.88
2019-03-12T13:04:19.142Z,57.65
2019-03-12T13:06:52.113Z,56.94
2019-03-12T13:09:24.033Z,57.03
2019-03-12T13:11:55.694Z,56.79
2019-03-12T13:14:27.363Z,56.67
2019-03-12T13:17:00.042Z,56.84
2019-03-12T13:19:31.821Z,56.65
2019-03-12T13:22:03.488Z,55.55
2019-03-12T13:24:35.176Z,55.58
2019-03-12T13:27:06.761Z,55.32
2019-03-12T13:29:38.514Z,54.91
2019-03-12T13:32:13.771Z,54.48
2019-03-12T13:34:43.608Z,54.30
2019-03-12T13:37:15.200Z,55.57
2019-03-12T13:39:46.879Z,54.94
2019-03-12T13:42:18.539Z,55.82
2019-03-12T13:44:50.380Z,55.64
2019-03-12T13:47:22.110Z,55.58
2019-03-12T13:49:54.062Z,55.52
2019-03-12T13:52:25.716Z,56.01
2019-03-12T13:54:58.442Z,54.53
2019-03-12T13:57:30.092Z,54.34
2019-03-12T14:00:01.938Z,54.52
2019-03-12T14:02:35.137Z,53.96
2019-03-12T14:05:07.080Z,54.32
2019-03-12T14:07:38.942Z,55.06
2019-03-12T14:10:12.481Z,54.76
2019-03-12T14:12:44.237Z,55.43
2019-03-12T14:15:19.172Z,55.53
2019-03-12T14:17:51.074Z,55.62
2019-03-12T14:20:42.906Z,55.42
2019-03-12T14:23:16.913Z,55.63
2019-03-12T14:25:49.143Z,55.27
2019-03-12T14:28:21.106Z,55.54
2019-03-12T14:30:52.771Z,55.47
2019-03-12T14:33:24.438Z,55.47
2019-03-12T14:35:56.108Z,54.75
2019-03-12T14:38:27.779Z,54.51
2019-03-12T14:40:59.447Z,54.79
2019-03-12T14:43:31.111Z,55.61
2019-03-12T14:46:02.757Z,55.59
2019-03-12T14:48:47.785Z,55.77
2019-03-12T14:51:58.253Z,56.16
2019-03-12T14:54:29.963Z,55.43
2019-03-12T14:57:18.030Z,55.72
2019-03-12T14:59:49.641Z,55.10
2019-03-12T15:02:21.745Z,55.93
2019-03-12T15:04:53.419Z,56.00
2019-03-12T15:07:25.096Z,56.31
2019-03-12T15:09:56.850Z,57.30
2019-03-12T15:12:28.513Z,57.30
2019-03-12T15:15:00.351Z,57.36
2019-03-12T15:17:32.057Z,56.56
2019-03-12T15:20:03.719Z,57.15
2019-03-12T15:22:35.391Z,56.99
2019-03-12T15:25:07.401Z,56.73
2019-03-12T15:27:39.083Z,57.46
2019-03-12T15:30:16.313Z,58.31
2019-03-12T15:32:48.006Z,58.60
2019-03-12T15:35:19.729Z,59.33
2019-03-12T15:37:51.322Z,59.21
2019-03-12T15:40:22.999Z,59.37
2019-03-12T15:42:54.790Z,59.57
2019-03-12T15:45:26.442Z,60.32
2019-03-12T15:47:58.072Z,60.24
2019-03-12T15:50:29.687Z,60.00
2019-03-12T15:53:01.381Z,59.73
2019-03-12T15:55:33.018Z,59.36
2019-03-12T15:58:04.717Z,59.23
2019-03-12T16:00:36.316Z,57.94
2019-03-12T16:03:08.028Z,57.75
2019-03-12T16:05:39.682Z,57.76
2019-03-12T16:08:11.382Z,58.68
2019-03-12T16:10:42.980Z,57.96
2019-03-12T16:13:14.682Z,58.34
2019-03-12T16:15:46.369Z,59.08
2019-03-12T16:18:18.474Z,59.03
2019-03-12T16:20:50.363Z,58.98
2019-03-12T16:23:22.285Z,58.78
2019-03-12T16:25:54.138Z,58.72
2019-03-12T16:28:26.837Z,59.25
2019-03-12T16:30:58.440Z,59.49
2019-03-12T16:33:30.117Z,59.90
2019-03-12T16:36:02.793Z,60.45
2019-03-12T16:38:34.431Z,60.92
2019-03-12T16:41:06.305Z,61.23
2019-03-12T16:43:38.011Z,61.44
2019-03-12T16:46:09.636Z,61.72
2019-03-12T16:48:41.248Z,62.44
2019-03-12T16:51:12.882Z,62.83
2019-03-12T16:53:44.505Z,62.95
2019-03-12T16:56:16.129Z,63.75
2019-03-12T16:58:48.057Z,64.40
2019-03-12T17:01:19.746Z,64.93
2019-03-12T17:03:51.421Z,64.93
2019-03-12T17:06:23.019Z,65.32
2019-03-12T17:08:54.640Z,65.53
2019-03-12T17:11:26.327Z,65.38
2019-03-12T17:13:58.033Z,65.55
2019-03-12T17:16:29.720Z,65.78
2019-03-12T17:19:01.331Z,65.95
2019-03-12T17:21:33.113Z,65.71
2019-03-12T17:24:04.801Z,65.80
2019-03-12T17:26:36.475Z,65.56
2019-03-12T17:29:08.105Z,65.64
2019-03-12T17:31:39.787Z,65.58
2019-03-12T17:34:11.402Z,65.67
2019-03-12T17:36:43.092Z,65.67
2019-03-12T17:39:14.718Z,65.66
2019-03-12T17:41:46.399Z,65.94
2019-03-12T17:44:18.297Z,65.93
2019-03-12T17:46:51.237Z,65.90
2019-03-12T17:49:22.919Z,65.84
2019-03-12T17:51:54.812Z,65.73
2019-03-12T17:54:26.881Z,65.53
2019-03-12T17:56:59.026Z,65.65
2019-03-12T17:59:31.007Z,65.66
2019-03-12T18:02:03.116Z,66.08
2019-03-12T18:04:35.176Z,65.68
2019-03-12T18:07:07.326Z,65.57
2019-03-12T18:09:41.147Z,65.94
2019-03-12T18:12:13.100Z,65.47
2019-03-12T18:14:44.909Z,65.69
2019-03-12T18:17:21.154Z,65.26
2019-03-12T18:19:51.772Z,65.33
2019-03-12T18:22:23.877Z,65.24
2019-03-12T18:24:56.003Z,65.61
2019-03-12T18:27:28.702Z,65.49
2019-03-12T18:30:00.758Z,65.61
2019-03-12T18:32:34.314Z,65.64
2019-03-12T18:35:06.421Z,65.51
2019-03-12T18:37:38.212Z,65.84
2019-03-12T18:40:17.453Z,65.62
2019-03-12T18:42:49.564Z,65.45
2019-03-12T18:45:22.458Z,65.66
2019-03-12T18:47:54.280Z,65.59
2019-03-12T18:50:26.135Z,65.69
2019-03-12T18:52:57.971Z,65.58
2019-03-12T18:56:01.914Z,65.71
2019-03-12T18:58:34.595Z,66.07
2019-03-12T19:01:11.583Z,65.59
2019-03-12T19:03:43.652Z,65.48
2019-03-12T19:06:16.714Z,65.79
2019-03-12T19:08:48.882Z,65.34
2019-03-12T19:11:20.947Z,65.27
2019-03-12T19:13:53.110Z,65.03
2019-03-12T19:16:25.033Z,64.92
2019-03-12T19:18:56.863Z,64.57
2019-03-12T19:21:30.222Z,64.94
2019-03-12T19:24:03.297Z,64.30
2019-03-12T19:26:35.658Z,64.02
2019-03-12T19:29:07.699Z,63.81
2019-03-12T19:31:47.098Z,63.91
2019-03-12T19:34:24.919Z,63.45
2019-03-12T19:37:19.346Z,63.10
2019-03-12T19:39:56.302Z,62.62
2019-03-12T19:42:27.955Z,62.36
2019-03-12T19:45:14.557Z,62.39
2019-03-12T19:47:47.043Z,61.81
2019-03-12T19:50:20.485Z,61.60
2019-03-12T19:52:52.915Z,61.61
2019-03-12T19:55:28.053Z,60.95
2019-03-12T19:58:02.598Z,60.56
2019-03-12T20:00:34.755Z,60.82
2019-03-12T20:03:13.401Z,60.34
2019-03-12T20:05:42.074Z,60.55
2019-03-12T20:08:14.022Z,60.50
2019-03-12T20:11:18.750Z,59.57
2019-03-12T20:14:16.622Z,59.67
2019-03-12T20:17:31.886Z,59.41
2019-03-12T20:20:58.382Z,59.11
2019-03-12T20:24:11.671Z,58.95
2019-03-12T20:27:20.140Z,59.20
2019-03-12T20:30:28.833Z,59.41
2019-03-12T20:33:51.685Z,58.77
2019-03-12T20:37:03.142Z,58.61
2019-03-12T20:40:23.708Z,59.04
2019-03-12T20:43:35.216Z,58.97
2019-03-12T20:47:01.791Z,58.68
2019-03-12T20:50:02.358Z,58.76
2019-03-12T20:53:16.608Z,58.78
2019-03-12T20:56:23.341Z,59.33
2019-03-12T20:59:51.050Z,58.96
2019-03-12T21:03:29.671Z,59.11
2019-03-12T21:06:31.823Z,59.31
2019-03-12T21:09:52.412Z,59.37
2019-03-12T21:13:07.912Z,59.24
2019-03-12T21:16:13.626Z,59.72
2019-03-12T21:19:21.129Z,59.41
2019-03-12T21:22:28.656Z,59.59
2019-03-12T21:25:35.419Z,59.09
2019-03-12T21:28:49.787Z,59.26
2019-03-12T21:31:21.466Z,59.46
2019-03-12T21:33:53.153Z,59.35
2019-03-12T21:36:24.771Z,59.12
2019-03-12T21:38:56.401Z,59.20
2019-03-12T21:41:28.081Z,59.31
2019-03-12T21:43:59.719Z,59.46
2019-03-12T21:46:31.312Z,59.20
2019-03-12T21:49:03.010Z,59.54
2019-03-12T21:51:34.605Z,59.06
2019-03-12T21:54:06.302Z,58.98
2019-03-12T21:56:37.963Z,59.11
2019-03-12T21:59:09.577Z,59.28
2019-03-12T22:01:41.256Z,59.01
2019-03-12T22:04:12.939Z,59.18
2019-03-12T22:06:44.602Z,58.86
2019-03-12T22:09:17.556Z,59.05
2019-03-12T22:11:49.406Z,59.16
2019-03-12T22:14:21.295Z,58.82
2019-03-12T22:16:56.091Z,59.12
2019-03-12T22:19:28.891Z,59.32
2019-03-12T22:22:09.013Z,59.16
2019-03-12T22:24:40.759Z,59.14
2019-03-12T22:27:12.435Z,59.17
2019-03-12T22:29:44.049Z,58.95
2019-03-12T22:32:15.640Z,59.40
2019-03-12T22:34:47.569Z,59.05
2019-03-12T22:37:19.400Z,58.97
2019-03-12T22:39:51.327Z,58.95
2019-03-12T22:42:22.949Z,58.95
2019-03-12T22:44:54.536Z,58.77
2019-03-12T22:47:26.112Z,58.57
2019-03-12T22:49:57.705Z,58.36
2019-03-12T22:52:29.358Z,58.74
2019-03-12T22:55:03.835Z,58.29
2019-03-12T22:57:34.405Z,58.21
2019-03-12T23:00:23.909Z,58.37
2019-03-12T23:03:13.318Z,58.44
2019-03-12T23:06:02.934Z,58.16
2019-03-12T23:08:52.467Z,58.37
2019-03-12T23:11:25.816Z,58.33
2019-03-12T23:13:58.232Z,58.05
2019-03-12T23:16:30.685Z,58.19
2019-03-12T23:19:02.412Z,57.73
2019-03-12T23:21:34.441Z,58.03
2019-03-12T23:24:06.168Z,58.08
2019-03-12T23:26:39.093Z,58.35
2019-03-12T23:29:10.918Z,58.09
2019-03-12T23:31:43.663Z,58.54
2019-03-12T23:34:15.387Z,58.57
2019-03-12T23:36:47.128Z,58.35
2019-03-12T23:39:18.854Z,58.49
2019-03-12T23:41:50.614Z,58.54
2019-03-12T23:44:22.432Z,58.49
2019-03-12T23:46:54.269Z,59.29
2019-03-12T23:49:25.993Z,58.74
2019-03-12T23:51:57.915Z,58.59
2019-03-12T23:54:30.171Z,58.40
2019-03-12T23:57:01.930Z,58.26
2019-03-12T23:59:33.660Z,58.80
